Time;durP1;ratioP1;P1;durP2;ratioP2;P2;SDS_P1;SDS_P2;PMS_P1;PMS_P2;Temp;Humidity;BMP_temperature;BMP_pressure;BME280_temperature;BME280_humidity;BME280_pressure;Samples;Min_cycle;Max_cycle;Signal;HPM_P1;HPM_P2
2022/04/22 00:01:13;;;;;;;58.90;33.30;;;;;;;8.82;79.92;99844.64;105708;1271;22549;-57
2022/04/22 00:03:45;;;;;;;59.40;33.50;;;;;;;8.81;79.90;99836.52;105755;1271;22540;-57
2022/04/22 00:06:17;;;;;;;59.90;33.00;;;;;;;8.79;79.74;99838.04;105714;1271;22528;-57
2022/04/22 00:08:50;;;;;;;63.70;34.70;;;;;;;8.78;79.74;99828.45;105792;1271;24295;-56
2022/04/22 00:11:31;;;;;;;64.80;36.20;;;;;;;8.77;79.93;99826.40;105786;1271;25435;-58
2022/04/22 00:14:04;;;;;;;57.10;33.70;;;;;;;8.75;80.11;99825.60;105850;1271;22564;-57
2022/04/22 00:16:35;;;;;;;59.20;33.10;;;;;;;8.73;80.22;99825.91;105740;1271;22972;-58
2022/04/22 00:19:07;;;;;;;65.20;33.40;;;;;;;8.66;80.40;99826.89;105828;1271;24303;-56
2022/04/22 00:21:41;;;;;;;61.00;33.60;;;;;;;8.60;80.33;99824.00;105771;1273;22538;-55
2022/04/22 00:24:14;;;;;;;65.80;35.30;;;;;;;8.55;80.51;99816.61;105729;1272;25247;-55
2022/04/22 00:26:46;;;;;;;64.80;35.40;;;;;;;8.49;80.57;99811.73;105866;1271;22529;-57
2022/04/22 00:29:17;;;;;;;66.60;33.70;;;;;;;8.47;80.57;99810.29;105887;1271;24398;-57
2022/04/22 00:31:49;;;;;;;61.70;35.30;;;;;;;8.47;80.68;99815.63;105759;1272;22530;-55
2022/04/22 00:34:20;;;;;;;61.80;33.50;;;;;;;8.47;80.76;99811.27;105733;1271;22681;-56
2022/04/22 00:36:53;;;;;;;63.20;34.70;;;;;;;8.47;80.83;99812.30;105755;1272;22560;-54
2022/04/22 00:39:25;;;;;;;63.90;34.70;;;;;;;8.47;80.98;99810.46;105820;1271;24238;-56
2022/04/22 00:41:56;;;;;;;63.30;33.10;;;;;;;8.47;80.93;99804.44;105754;1271;22525;-55
2022/04/22 00:44:28;;;;;;;60.20;32.40;;;;;;;8.47;80.97;99808.40;105759;1271;22547;-58
2022/04/22 00:47:02;;;;;;;66.40;33.10;;;;;;;8.48;80.88;99812.27;105707;1271;24237;-56
2022/04/22 00:49:33;;;;;;;63.10;31.50;;;;;;;8.47;80.88;99808.70;105756;1271;22534;-56
2022/04/22 00:52:05;;;;;;;65.20;34.40;;;;;;;8.47;80.99;99803.89;105757;1271;22750;-56
2022/04/22 00:54:38;;;;;;;55.60;31.60;;;;;;;8.48;80.87;99802.50;105837;1271;22663;-56
2022/04/22 00:57:09;;;;;;;62.20;33.70;;;;;;;8.47;80.87;99795.40;105704;1271;22544;-57
2022/04/22 00:59:41;;;;;;;60.10;32.80;;;;;;;8.47;80.83;99795.85;105770;1271;22534;-57
2022/04/22 01:02:12;;;;;;;58.70;32.10;;;;;;;8.47;80.82;99792.82;105736;1271;22481;-57
2022/04/22 01:10:23;;;;;;;64.00;32.60;;;;;;;8.43;80.96;99785.31;105643;1271;22568;-58
2022/04/22 01:12:56;;;;;;;58.10;31.70;;;;;;;8.43;81.03;99786.21;105696;1272;23020;-57
2022/04/22 01:15:28;;;;;;;64.00;35.20;;;;;;;8.41;81.16;99790.73;105665;1271;22541;-57
2022/04/22 01:18:00;;;;;;;65.60;34.20;;;;;;;8.38;81.34;99797.19;105702;1271;25264;-55
2022/04/22 01:20:32;;;;;;;60.70;33.20;;;;;;;8.37;81.25;99798.27;105754;1272;25650;-58
2022/04/22 01:23:03;;;;;;;69.20;36.40;;;;;;;8.37;81.19;99795.89;105863;1271;23956;-56
2022/04/22 01:25:35;;;;;;;70.00;35.50;;;;;;;8.37;81.37;99795.09;106019;1271;25490;-57
2022/04/22 01:28:09;;;;;;;66.20;35.60;;;;;;;8.37;81.33;99789.06;105824;1271;22581;-57
2022/04/22 01:30:41;;;;;;;62.70;35.60;;;;;;;8.36;81.42;99786.52;105708;1271;22544;-58
2022/04/22 01:33:13;;;;;;;70.90;37.20;;;;;;;8.37;81.46;99783.27;105710;1271;22613;-58
2022/04/22 01:35:47;;;;;;;70.30;37.20;;;;;;;8.36;81.46;99778.13;105694;1274;22599;-55
2022/04/22 01:38:19;;;;;;;68.20;37.60;;;;;;;8.35;81.61;99774.62;105943;1271;25461;-57
2022/04/22 01:40:51;;;;;;;60.80;34.20;;;;;;;8.34;81.60;99771.62;105847;1271;22534;-55
2022/04/22 01:43:23;;;;;;;66.10;35.10;;;;;;;8.33;81.46;99769.79;105810;1271;25104;-57
2022/04/22 01:45:55;;;;;;;69.70;35.60;;;;;;;8.32;81.50;99771.84;105801;1271;22622;-54
2022/04/22 01:48:26;;;;;;;66.80;36.10;;;;;;;8.30;81.60;99767.44;105969;1271;25324;-55
2022/04/22 01:51:00;;;;;;;63.80;34.80;;;;;;;8.25;81.67;99769.23;105788;1271;25419;-57
2022/04/22 01:53:33;;;;;;;62.20;33.70;;;;;;;8.21;81.78;99769.56;105699;1271;25404;-57
2022/04/22 01:56:05;;;;;;;66.20;34.90;;;;;;;8.21;81.56;99763.95;105762;1271;22596;-55
2022/04/22 01:58:36;;;;;;;63.80;34.30;;;;;;;8.21;81.60;99756.96;105761;1271;22534;-57
2022/04/22 02:01:08;;;;;;;69.30;36.40;;;;;;;8.21;81.68;99754.95;105858;1272;25614;-57
2022/04/22 02:03:39;;;;;;;68.20;36.50;;;;;;;8.17;81.84;99750.53;105821;1271;22752;-56
2022/04/22 02:06:12;;;;;;;63.20;34.60;;;;;;;8.15;81.84;99747.55;105724;1271;22554;-55
2022/04/22 02:08:44;;;;;;;58.60;33.20;;;;;;;8.14;81.72;99744.29;105806;1271;22542;-55
2022/04/22 02:11:15;;;;;;;62.10;32.90;;;;;;;8.13;81.64;99743.27;105772;1271;22553;-57
2022/04/22 02:13:47;;;;;;;61.60;32.40;;;;;;;8.14;81.76;99738.08;105852;1271;25362;-56
2022/04/22 02:16:19;;;;;;;60.50;34.40;;;;;;;8.14;81.85;99729.33;105691;1271;22572;-57
2022/04/22 02:18:51;;;;;;;63.20;34.10;;;;;;;8.13;81.84;99731.03;105714;1273;24519;-56
2022/04/22 02:21:23;;;;;;;65.30;35.40;;;;;;;8.13;81.71;99731.04;105705;1271;22540;-55
2022/04/22 02:23:55;;;;;;;59.80;33.10;;;;;;;8.13;81.78;99729.96;105654;1271;25425;-58
2022/04/22 02:26:26;;;;;;;64.90;34.20;;;;;;;8.12;81.90;99730.39;105760;1271;22594;-57
2022/04/22 02:28:57;;;;;;;65.00;34.50;;;;;;;8.12;81.99;99724.52;105758;1271;22554;-56
2022/04/22 02:31:29;;;;;;;62.50;33.70;;;;;;;8.11;82.07;99724.77;105670;1271;22614;-55
2022/04/22 02:34:01;;;;;;;68.50;35.50;;;;;;;8.11;82.19;99725.83;105741;1271;24316;-56
2022/04/22 02:36:32;;;;;;;69.30;36.20;;;;;;;8.10;82.23;99728.81;105634;1271;22533;-55
2022/04/22 02:39:04;;;;;;;65.10;34.70;;;;;;;8.08;82.26;99728.44;105696;1271;25316;-56
2022/04/22 02:47:14;;;;;;;67.40;35.40;;;;;;;8.07;82.43;99733.17;105645;1271;23542;-55
2022/04/22 02:49:45;;;;;;;69.30;35.40;;;;;;;8.07;82.47;99731.25;105820;1271;24321;-55
2022/04/22 02:52:18;;;;;;;63.40;35.00;;;;;;;8.04;82.64;99731.64;105717;1271;24257;-58
2022/04/22 02:54:49;;;;;;;57.10;32.50;;;;;;;7.98;82.62;99731.67;105694;1273;22518;-55
2022/04/22 02:57:21;;;;;;;62.40;32.90;;;;;;;7.88;82.65;99732.06;105708;1271;22529;-56
2022/04/22 02:59:54;;;;;;;64.00;33.10;;;;;;;7.83;82.83;99732.36;105902;1271;22768;-56
2022/04/22 03:02:26;;;;;;;61.70;33.10;;;;;;;7.81;82.94;99735.91;105666;1271;25258;-55
2022/04/22 03:04:58;;;;;;;60.60;32.70;;;;;;;7.82;83.08;99737.13;105760;1271;23101;-56
2022/04/22 03:07:29;;;;;;;58.80;31.70;;;;;;;7.82;83.08;99741.12;105650;1271;24208;-56
2022/04/22 03:10:01;;;;;;;59.00;31.50;;;;;;;7.80;83.00;99743.20;106110;1262;22649;-55
2022/04/22 03:12:34;;;;;;;62.20;32.10;;;;;;;7.80;83.14;99744.07;105785;1273;24212;-52
2022/04/22 03:15:06;;;;;;;60.90;32.90;;;;;;;7.81;83.01;99742.21;106055;1273;25487;-54
2022/04/22 03:17:39;;;;;;;60.00;32.70;;;;;;;7.82;83.09;99738.10;105775;1273;22548;-52
2022/04/22 03:20:12;;;;;;;60.50;32.80;;;;;;;7.82;83.10;99735.88;105776;1273;22563;-55
2022/04/22 03:22:44;;;;;;;66.50;32.70;;;;;;;7.81;83.18;99732.45;105669;1273;23985;-55
2022/04/22 03:25:19;;;;;;;63.00;33.10;;;;;;;7.81;83.23;99730.29;105663;1273;22525;-53
2022/04/22 03:27:51;;;;;;;66.30;34.00;;;;;;;7.83;83.33;99728.86;105882;1273;22855;-53
2022/04/22 03:30:29;;;;;;;56.90;32.50;;;;;;;7.84;83.30;99729.59;105748;1273;22538;-51
2022/04/22 03:33:02;;;;;;;61.30;31.90;;;;;;;7.86;83.35;99726.56;105949;1273;24306;-53
2022/04/22 03:35:34;;;;;;;65.70;32.80;;;;;;;7.86;83.24;99726.96;105911;1273;25241;-57
2022/04/22 03:38:06;;;;;;;61.90;31.40;;;;;;;7.84;83.44;99732.94;105890;1273;23126;-54
2022/04/22 03:40:38;;;;;;;62.60;32.80;;;;;;;7.80;83.44;99734.77;105826;1273;24297;-54
2022/04/22 03:43:11;;;;;;;58.80;31.20;;;;;;;7.80;83.63;99730.88;105859;1273;22553;-57
2022/04/22 03:45:43;;;;;;;58.50;31.20;;;;;;;7.81;83.58;99728.31;105725;1273;24315;-53
2022/04/22 03:48:15;;;;;;;52.30;29.00;;;;;;;7.82;83.44;99723.19;105935;1273;25235;-53
2022/04/22 03:50:48;;;;;;;55.90;30.20;;;;;;;7.84;83.55;99723.48;105854;1273;24353;-54
2022/04/22 03:53:19;;;;;;;59.60;32.20;;;;;;;7.86;83.52;99720.85;105892;1273;25236;-53
2022/04/22 03:55:51;;;;;;;63.80;33.10;;;;;;;7.88;83.34;99716.69;105765;1273;24374;-52
2022/04/22 03:58:22;;;;;;;67.90;33.90;;;;;;;7.90;83.41;99715.73;105770;1273;22537;-51
2022/04/22 04:00:54;;;;;;;68.60;36.70;;;;;;;7.90;83.43;99718.16;106129;1273;24180;-51
2022/04/22 04:03:26;;;;;;;66.80;33.30;;;;;;;7.90;83.60;99721.20;106006;1273;25403;-51
2022/04/22 04:05:59;;;;;;;63.70;34.00;;;;;;;7.90;83.56;99722.55;105854;1273;25526;-51
2022/04/22 04:08:30;;;;;;;66.70;34.10;;;;;;;7.91;83.60;99724.80;105859;1273;24217;-50
2022/04/22 04:16:58;;;;;;;69.20;35.30;;;;;;;7.96;83.90;99725.48;105386;1279;22555;-49
2022/04/22 04:25:09;;;;;;;66.00;33.80;;;;;;;8.01;83.81;99715.86;105323;1279;22572;-52
2022/04/22 04:27:41;;;;;;;63.70;33.10;;;;;;;8.02;83.70;99708.16;105454;1277;23970;-54
2022/04/22 04:30:14;;;;;;;66.70;33.60;;;;;;;8.03;84.01;99705.81;105528;1279;22669;-50
2022/04/22 04:32:45;;;;;;;70.30;34.80;;;;;;;8.04;84.16;99701.88;105579;1279;24413;-53
2022/04/22 04:35:17;;;;;;;65.30;33.30;;;;;;;8.05;84.09;99699.46;105446;1279;25338;-51
2022/04/22 04:37:49;;;;;;;64.10;34.60;;;;;;;8.07;84.02;99705.01;105607;1279;22627;-53
2022/04/22 04:40:21;;;;;;;68.80;34.00;;;;;;;8.07;83.90;99704.52;105475;1279;22521;-52
2022/04/22 04:42:54;;;;;;;69.70;36.40;;;;;;;8.08;84.09;99707.22;105471;1279;22663;-51
2022/04/22 04:45:27;;;;;;;64.70;34.50;;;;;;;8.10;84.11;99710.23;106884;1278;22544;-50
2022/04/22 04:47:58;;;;;;;72.40;37.50;;;;;;;8.12;84.22;99707.91;105576;1273;22675;-50
2022/04/22 04:50:33;;;;;;;70.80;37.70;;;;;;;8.14;84.04;99699.80;105945;1273;25354;-50
2022/04/22 04:53:05;;;;;;;68.10;36.10;;;;;;;8.15;83.87;99699.27;105677;1273;22630;-51
2022/04/22 04:55:41;;;;;;;63.40;34.10;;;;;;;8.16;84.08;99698.17;105870;1273;22547;-53
2022/04/22 04:58:13;;;;;;;69.20;35.60;;;;;;;8.17;84.06;99698.81;105641;1273;22650;-52
2022/04/22 05:00:45;;;;;;;72.10;35.30;;;;;;;8.19;84.11;99697.88;106020;1273;26840;-51
2022/04/22 05:03:17;;;;;;;69.10;35.90;;;;;;;8.20;84.09;99698.92;107167;1272;22472;-52
2022/04/22 05:05:49;;;;;;;73.30;37.00;;;;;;;8.20;84.10;99695.73;106166;1273;23935;-51
2022/04/22 05:08:21;;;;;;;83.30;48.80;;;;;;;8.19;84.20;99694.19;105805;1273;22544;-51
2022/04/22 05:10:52;;;;;;;81.10;43.30;;;;;;;8.19;84.41;99697.62;105831;1273;25245;-53
2022/04/22 05:13:24;;;;;;;75.90;41.70;;;;;;;8.19;84.22;99694.76;105903;1273;25357;-52
2022/04/22 05:15:57;;;;;;;69.70;35.60;;;;;;;8.21;84.33;99692.61;105809;1273;25811;-51
2022/04/22 05:18:29;;;;;;;100.30;63.30;;;;;;;8.22;84.25;99700.20;105940;1273;22543;-52
2022/04/22 05:21:01;;;;;;;78.40;44.40;;;;;;;8.22;84.56;99702.78;105731;1273;22613;-50
2022/04/22 05:23:33;;;;;;;70.40;38.20;;;;;;;8.24;84.73;99704.14;105610;1273;22546;-50
2022/04/22 05:26:05;;;;;;;210.00;77.70;;;;;;;8.26;84.72;99705.94;105705;1273;24227;-53
2022/04/22 05:28:37;;;;;;;147.70;59.10;;;;;;;8.28;84.50;99706.48;105825;1273;22576;-50
2022/04/22 05:33:57;;;;;;;141.00;55.70;;;;;;;8.31;84.80;99703.89;105651;1273;22930;-51
2022/04/22 05:36:28;;;;;;;93.90;42.20;;;;;;;8.33;84.66;99705.82;105937;1273;22600;-50
2022/04/22 05:39:03;;;;;;;277.40;98.00;;;;;;;8.36;84.84;99704.61;106105;1273;25549;-54
2022/04/22 05:41:36;;;;;;;109.30;47.60;;;;;;;8.40;84.80;99705.19;105699;1273;22532;-50
2022/04/22 05:44:09;;;;;;;75.30;36.00;;;;;;;8.44;85.21;99703.86;105815;1272;22534;-49
2022/04/22 05:46:41;;;;;;;67.10;35.30;;;;;;;8.49;85.04;99703.85;105812;1273;25234;-54
2022/04/22 05:49:12;;;;;;;72.80;34.70;;;;;;;8.55;84.99;99701.54;105819;1273;27773;-51
2022/04/22 05:51:45;;;;;;;63.60;31.60;;;;;;;8.60;85.14;99698.58;105788;1273;22564;-52
2022/04/22 05:54:17;;;;;;;64.00;33.00;;;;;;;8.65;84.80;99697.42;105710;1273;22529;-55
2022/04/22 05:56:48;;;;;;;65.30;34.00;;;;;;;8.70;84.73;99694.92;105745;1273;22561;-51
2022/04/22 05:59:19;;;;;;;63.60;33.30;;;;;;;8.76;84.97;99697.23;105734;1273;25385;-52
2022/04/22 06:01:52;;;;;;;60.90;32.20;;;;;;;8.82;85.24;99692.60;105653;1273;25558;-50
2022/04/22 06:04:23;;;;;;;66.60;32.60;;;;;;;8.89;85.10;99695.30;105683;1273;22556;-50
2022/04/22 06:06:55;;;;;;;64.60;32.40;;;;;;;8.97;85.43;99690.77;105803;1273;22569;-53
2022/04/22 06:12:15;;;;;;;84.70;40.20;;;;;;;9.10;85.04;99697.91;105767;1273;22824;-52
2022/04/22 06:14:47;;;;;;;67.90;33.90;;;;;;;9.16;84.87;99696.24;105634;1273;24381;-51
2022/04/22 06:17:19;;;;;;;61.20;33.00;;;;;;;9.22;84.64;99697.65;106612;1273;22804;-52
2022/04/22 06:19:51;;;;;;;72.20;34.70;;;;;;;9.28;84.74;99692.29;105884;1273;25322;-49
2022/04/22 06:22:23;;;;;;;88.70;41.80;;;;;;;9.33;84.65;99692.05;105927;1271;25446;-52
2022/04/22 06:24:54;;;;;;;75.10;38.00;;;;;;;9.39;84.63;99692.20;105887;1273;25441;-50
2022/04/22 06:27:28;;;;;;;84.90;41.70;;;;;;;9.45;84.69;99693.40;105667;1273;22771;-49
2022/04/22 06:30:04;;;;;;;77.10;40.10;;;;;;;9.51;84.40;99690.59;105615;1273;23420;-53
2022/04/22 06:32:38;;;;;;;71.60;38.40;;;;;;;9.56;84.43;99694.27;105840;1273;25240;-52
2022/04/22 06:35:12;;;;;;;87.80;44.10;;;;;;;9.62;84.66;99692.27;105854;1273;23149;-53
2022/04/22 06:37:46;;;;;;;89.00;46.30;;;;;;;9.70;84.87;99690.45;105901;1273;22558;-50
2022/04/22 06:46:05;;;;;;;75.20;40.80;;;;;;;9.94;84.29;99693.16;105365;1279;22560;-51
2022/04/22 06:48:37;;;;;;;74.90;41.40;;;;;;;10.00;84.41;99693.68;105415;1279;25588;-50
2022/04/22 06:51:10;;;;;;;86.60;47.90;;;;;;;10.06;84.19;99696.05;105433;1279;23840;-51
2022/04/22 06:53:42;;;;;;;84.70;44.90;;;;;;;10.13;84.15;99695.04;105363;1279;22761;-51
2022/04/22 06:56:15;;;;;;;83.60;44.60;;;;;;;10.21;84.05;99696.86;105382;1279;24280;-49
2022/04/22 06:58:48;;;;;;;77.70;44.20;;;;;;;10.26;83.88;99694.59;105429;1279;22557;-50
2022/04/22 07:01:22;;;;;;;78.40;45.40;;;;;;;10.34;83.68;99693.81;105450;1278;25320;-50
2022/04/22 07:03:54;;;;;;;73.80;39.90;;;;;;;10.42;83.66;99686.64;105486;1279;25410;-52
2022/04/22 07:06:28;;;;;;;67.80;37.40;;;;;;;10.50;83.66;99682.42;105524;1279;26532;-50
2022/04/22 07:09:02;;;;;;;72.50;39.10;;;;;;;10.57;82.92;99683.60;105527;1279;26660;-53
2022/04/22 07:11:35;;;;;;;74.20;38.60;;;;;;;10.62;82.77;99682.75;105582;1279;22520;-50
2022/04/22 07:14:09;;;;;;;72.90;39.60;;;;;;;10.69;82.51;99682.91;106223;1279;22764;-49
2022/04/22 07:16:45;;;;;;;74.70;38.40;;;;;;;10.76;82.51;99687.90;106034;1279;25474;-54
2022/04/22 07:19:18;;;;;;;74.90;40.40;;;;;;;10.83;82.26;99688.48;105569;1279;22624;-52
2022/04/22 07:21:51;;;;;;;65.70;35.50;;;;;;;10.91;82.15;99684.99;105890;1273;22551;-54
2022/04/22 07:24:23;;;;;;;71.20;35.40;;;;;;;10.97;81.39;99683.36;105938;1273;22571;-50
2022/04/22 07:26:58;;;;;;;61.20;32.60;;;;;;;11.01;80.66;99683.20;105818;1273;22540;-49
2022/04/22 07:29:37;;;;;;;63.10;33.40;;;;;;;11.06;80.37;99685.02;105886;1273;22598;-53
2022/04/22 07:32:10;;;;;;;63.10;34.30;;;;;;;11.12;80.47;99690.65;105885;1273;25527;-53
2022/04/22 07:34:43;;;;;;;63.60;32.20;;;;;;;11.17;80.20;99691.19;105875;1273;25639;-50
2022/04/22 07:37:15;;;;;;;53.10;27.00;;;;;;;11.23;80.19;99696.62;105831;1273;25246;-52
2022/04/22 07:39:49;;;;;;;58.40;30.20;;;;;;;11.29;79.70;99699.07;105827;1273;22555;-51
2022/04/22 07:42:21;;;;;;;56.10;29.40;;;;;;;11.35;79.49;99696.51;105905;1273;24253;-49
2022/04/22 07:47:46;;;;;;;52.00;28.00;;;;;;;11.54;79.23;99695.73;105879;1273;24047;-52
2022/04/22 07:50:19;;;;;;;50.40;27.10;;;;;;;11.59;78.92;99693.56;105982;1273;22550;-51
2022/04/22 07:52:51;;;;;;;46.20;23.20;;;;;;;11.63;78.92;99697.52;105866;1273;22551;-50
2022/04/22 07:55:22;;;;;;;45.30;25.10;;;;;;;11.64;78.33;99700.48;105834;1273;25376;-52
2022/04/22 07:57:57;;;;;;;45.50;25.50;;;;;;;11.62;78.21;99702.43;105861;1273;26261;-50
2022/04/22 08:00:29;;;;;;;46.30;24.00;;;;;;;11.60;78.04;99702.67;105750;1273;24224;-49
2022/04/22 08:03:01;;;;;;;47.10;23.60;;;;;;;11.59;77.80;99705.05;105916;1273;25647;-49
2022/04/22 08:05:35;;;;;;;41.40;22.40;;;;;;;11.60;77.85;99704.40;105909;1273;23236;-53
2022/04/22 08:08:07;;;;;;;37.30;19.90;;;;;;;11.66;78.13;99703.18;105772;1273;22528;-51
2022/04/22 08:10:39;;;;;;;37.50;20.00;;;;;;;11.74;78.10;99703.90;105834;1273;26596;-50
2022/04/22 08:13:12;;;;;;;38.50;20.00;;;;;;;11.80;77.73;99702.87;105928;1273;23934;-51
2022/04/22 08:15:43;;;;;;;37.40;19.60;;;;;;;11.86;77.48;99703.86;105860;1273;22554;-53
2022/04/22 08:18:14;;;;;;;33.60;18.30;;;;;;;11.91;77.40;99706.70;105775;1273;22538;-50
2022/04/22 08:20:46;;;;;;;37.50;20.00;;;;;;;11.95;76.96;99708.69;105847;1273;22534;-53
2022/04/22 08:23:21;;;;;;;36.30;20.80;;;;;;;11.98;76.81;99713.35;105750;1273;22570;-54
2022/04/22 08:25:52;;;;;;;31.80;17.20;;;;;;;12.02;76.84;99710.36;105661;1273;25517;-50
2022/04/22 08:28:24;;;;;;;31.90;17.60;;;;;;;12.05;76.63;99709.91;105811;1273;25481;-50
2022/04/22 08:30:56;;;;;;;36.30;19.30;;;;;;;12.04;75.89;99714.42;105809;1273;22499;-51
2022/04/22 08:33:28;;;;;;;33.20;18.10;;;;;;;12.01;76.17;99713.55;105739;1273;22553;-51
2022/04/22 08:36:01;;;;;;;30.50;16.60;;;;;;;12.00;75.90;99718.23;105712;1273;24432;-49
2022/04/22 08:38:33;;;;;;;30.60;18.10;;;;;;;12.00;75.87;99722.52;105725;1273;22537;-52
2022/04/22 08:41:07;;;;;;;34.50;17.40;;;;;;;12.00;75.52;99724.20;105622;1273;22756;-54
2022/04/22 08:43:40;;;;;;;27.00;15.50;;;;;;;11.96;74.88;99722.94;105725;1273;22580;-50
2022/04/22 08:51:50;;;;;;;28.70;14.80;;;;;;;11.89;74.43;99721.08;105835;1273;22550;-51
2022/04/22 08:54:23;;;;;;;26.90;13.40;;;;;;;11.88;74.56;99717.15;106071;1273;22553;-55
2022/04/22 08:56:55;;;;;;;29.80;15.50;;;;;;;11.87;74.52;99718.88;105826;1273;25350;-51
2022/04/22 08:59:29;;;;;;;29.20;14.70;;;;;;;11.85;74.57;99721.72;105920;1273;25389;-52
2022/04/22 09:02:05;;;;;;;30.70;15.50;;;;;;;11.84;74.43;99719.58;105786;1273;22522;-52
2022/04/22 09:04:37;;;;;;;30.10;15.30;;;;;;;11.81;74.13;99710.91;105821;1273;24203;-53
2022/04/22 09:07:13;;;;;;;27.60;14.10;;;;;;;11.77;74.28;99710.58;105854;1273;25428;-53
2022/04/22 09:09:49;;;;;;;28.80;14.50;;;;;;;11.74;74.17;99710.20;105822;1273;25245;-50
2022/04/22 09:12:24;;;;;;;26.40;14.80;;;;;;;11.71;74.50;99708.98;106266;1263;26658;-56
2022/04/22 09:14:57;;;;;;;27.40;13.90;;;;;;;11.68;74.14;99711.03;105862;1271;22700;-54
2022/04/22 09:17:30;;;;;;;26.70;14.50;;;;;;;11.65;74.21;99711.70;105862;1271;25442;-54
2022/04/22 09:20:06;;;;;;;28.90;15.20;;;;;;;11.62;74.29;99717.23;106095;1273;24341;-56
2022/04/22 09:22:38;;;;;;;31.10;13.70;;;;;;;11.58;74.08;99713.44;106106;1273;24236;-57
2022/04/22 09:25:10;;;;;;;29.30;14.40;;;;;;;11.55;74.16;99713.97;105962;1273;24422;-56
2022/04/22 09:27:43;;;;;;;29.80;13.90;;;;;;;11.53;74.02;99719.75;105953;1273;22551;-54
2022/04/22 09:30:16;;;;;;;31.70;15.10;;;;;;;11.48;74.10;99716.42;106096;1273;24383;-54
2022/04/22 09:32:47;;;;;;;35.60;16.80;;;;;;;11.44;74.14;99719.35;106001;1273;22525;-54
2022/04/22 09:35:22;;;;;;;31.00;13.40;;;;;;;11.40;73.86;99712.70;106115;1273;25321;-57
2022/04/22 09:43:39;;;;;;;29.40;13.00;;;;;;;11.29;73.74;99716.79;105770;1273;27389;-56
2022/04/22 09:46:27;;;;;;;28.30;12.60;;;;;;;11.29;73.86;99715.93;106342;1273;25449;-55
2022/04/22 09:49:00;;;;;;;30.30;12.10;;;;;;;11.28;73.74;99715.86;105991;1273;23871;-55
2022/04/22 09:51:32;;;;;;;23.60;10.90;;;;;;;11.26;73.59;99717.63;106226;1273;25297;-56
2022/04/22 09:54:05;;;;;;;27.60;11.90;;;;;;;11.25;73.60;99714.48;105899;1273;26474;-54
2022/04/22 09:56:38;;;;;;;26.00;11.90;;;;;;;11.25;73.59;99713.41;105984;1273;22625;-54
2022/04/22 09:59:24;;;;;;;19.20;8.20;;;;;;;11.25;73.78;99712.14;105921;1273;25369;-54
2022/04/22 10:01:56;;;;;;;18.40;8.60;;;;;;;11.25;73.77;99709.60;106010;1273;22653;-56
2022/04/22 10:04:28;;;;;;;17.30;7.20;;;;;;;11.24;73.61;99705.98;105928;1273;25613;-55
2022/04/22 10:07:02;;;;;;;20.00;8.90;;;;;;;11.23;73.58;99700.95;105864;1273;25323;-55
2022/04/22 10:09:36;;;;;;;20.80;9.20;;;;;;;11.22;73.67;99703.31;106084;1273;25525;-56
2022/04/22 10:12:13;;;;;;;18.90;8.00;;;;;;;11.23;73.70;99700.59;106067;1273;22737;-58
2022/04/22 10:14:46;;;;;;;21.70;9.90;;;;;;;11.29;73.79;99694.48;106087;1273;25343;-54
2022/04/22 10:17:20;;;;;;;21.50;9.30;;;;;;;11.35;73.55;99695.24;105936;1273;22569;-55
2022/04/22 10:19:54;;;;;;;21.70;10.10;;;;;;;11.43;73.52;99695.55;106034;1273;22532;-57
2022/04/22 10:22:31;;;;;;;21.90;9.60;;;;;;;11.52;73.44;99687.63;105984;1273;25337;-57
2022/04/22 10:25:06;;;;;;;20.90;9.80;;;;;;;11.59;72.97;99684.42;106086;1273;23037;-53
2022/04/22 10:27:39;;;;;;;21.00;8.80;;;;;;;11.67;73.11;99681.59;105943;1275;22528;-54
2022/04/22 10:30:14;;;;;;;20.10;9.30;;;;;;;11.73;72.76;99677.31;106133;1273;24297;-57
2022/04/22 10:32:48;;;;;;;21.40;9.80;;;;;;;11.78;72.37;99671.04;106256;1274;26562;-56
2022/04/22 10:35:25;;;;;;;19.20;9.20;;;;;;;11.81;72.51;99666.41;106026;1273;22570;-56
2022/04/22 10:37:56;;;;;;;20.90;9.50;;;;;;;11.84;72.41;99670.03;106057;1273;23931;-55
2022/04/22 10:40:29;;;;;;;20.00;8.60;;;;;;;11.86;72.50;99674.21;106116;1273;25448;-54
2022/04/22 10:43:02;;;;;;;19.50;7.50;;;;;;;11.87;72.06;99676.93;105916;1273;24441;-54
2022/04/22 10:48:33;;;;;;;21.60;8.80;;;;;;;11.87;71.95;99672.48;105458;1281;22541;-55
2022/04/22 10:51:05;;;;;;;18.10;7.90;;;;;;;11.91;71.92;99671.95;105594;1279;25472;-57
2022/04/22 10:53:47;;;;;;;39.90;21.00;;;;;;;11.94;71.58;99666.33;105539;1281;24535;-55
2022/04/22 10:56:35;;;;;;;52.20;24.80;;;;;;;11.97;71.65;99667.00;105481;1281;25598;-59
2022/04/22 10:59:33;;;;;;;62.20;31.40;;;;;;;11.98;70.93;99672.60;105549;1279;23544;-57
2022/04/22 11:02:30;;;;;;;36.50;21.70;;;;;;;11.94;70.87;99673.39;105441;1281;25524;-55
2022/04/22 11:05:39;;;;;;;28.50;14.40;;;;;;;11.92;70.90;99671.10;105544;1279;24322;-54
2022/04/22 11:08:20;;;;;;;22.20;11.60;;;;;;;11.90;71.01;99673.52;105552;1281;22541;-57
2022/04/22 11:11:05;;;;;;;21.60;9.50;;;;;;;11.89;71.07;99675.86;105591;1279;25437;-56
2022/04/22 11:13:41;;;;;;;21.10;9.50;;;;;;;11.91;71.08;99681.92;105486;1279;22829;-57
2022/04/22 11:16:25;;;;;;;20.30;9.90;;;;;;;11.91;71.10;99680.04;105395;1281;23197;-58
2022/04/22 11:19:36;;;;;;;22.50;10.50;;;;;;;11.94;70.93;99679.60;105477;1279;25564;-54
2022/04/22 11:22:10;;;;;;;22.00;8.90;;;;;;;11.98;70.69;99678.96;105531;1279;25385;-55
2022/04/22 11:24:43;;;;;;;21.00;9.30;;;;;;;12.03;70.80;99673.94;105562;1281;24320;-54
2022/04/22 11:27:15;;;;;;;29.50;13.30;;;;;;;12.08;70.76;99677.11;106026;1273;22558;-57
2022/04/22 11:29:46;;;;;;;38.20;20.70;;;;;;;12.13;70.70;99677.77;106093;1273;24297;-55
2022/04/22 11:32:27;;;;;;;27.50;14.30;;;;;;;12.14;70.10;99679.73;106102;1273;22691;-54
2022/04/22 11:35:19;;;;;;;21.50;9.60;;;;;;;12.12;70.06;99675.59;105891;1274;22579;-54
2022/04/22 11:38:01;;;;;;;21.30;8.90;;;;;;;12.13;70.37;99672.86;106107;1273;23036;-56
2022/04/22 11:40:37;;;;;;;19.00;9.10;;;;;;;12.19;70.56;99670.44;106063;1273;22800;-55
2022/04/22 11:43:11;;;;;;;19.30;9.00;;;;;;;12.26;70.46;99675.91;105938;1273;25287;-55
2022/04/22 11:45:45;;;;;;;19.30;9.30;;;;;;;12.32;70.44;99680.34;106073;1273;22745;-57
2022/04/22 11:48:21;;;;;;;19.70;8.90;;;;;;;12.40;70.42;99676.04;106087;1273;22624;-55
2022/04/22 11:50:58;;;;;;;18.40;7.80;;;;;;;12.46;70.34;99677.89;105984;1273;22557;-54
2022/04/22 11:53:32;;;;;;;20.20;8.70;;;;;;;12.53;70.19;99672.92;105926;1274;24262;-56
2022/04/22 11:56:05;;;;;;;22.10;9.10;;;;;;;12.58;69.88;99672.17;105802;1273;22688;-57
2022/04/22 11:58:38;;;;;;;19.10;8.40;;;;;;;12.61;69.73;99672.58;105956;1273;27540;-54
2022/04/22 12:06:52;;;;;;;19.00;8.90;;;;;;;12.63;69.40;99672.07;105983;1273;22532;-56
2022/04/22 12:09:25;;;;;;;24.60;9.40;;;;;;;12.64;69.50;99671.27;106354;1273;25288;-56
2022/04/22 12:12:02;;;;;;;27.00;11.20;;;;;;;12.68;69.49;99671.46;105808;1273;22544;-53
2022/04/22 12:14:34;;;;;;;31.20;13.40;;;;;;;12.69;68.82;99669.58;106098;1273;22603;-56
2022/04/22 12:17:06;;;;;;;25.60;10.30;;;;;;;12.65;68.40;99666.88;106010;1273;22714;-55
2022/04/22 12:19:39;;;;;;;25.10;10.00;;;;;;;12.60;68.25;99670.39;105903;1273;22570;-57
2022/04/22 12:22:12;;;;;;;24.10;9.10;;;;;;;12.57;67.84;99671.41;106167;1273;23386;-56
2022/04/22 12:25:16;;;;;;;26.30;9.60;;;;;;;12.54;67.71;99673.34;106136;1273;22784;-56
2022/04/22 12:28:08;;;;;;;26.20;10.90;;;;;;;12.53;67.76;99676.28;106016;1274;25398;-54
2022/04/22 12:30:41;;;;;;;23.80;10.60;;;;;;;12.52;67.96;99673.78;106334;1273;22580;-57
2022/04/22 12:33:20;;;;;;;30.10;11.50;;;;;;;12.53;67.85;99675.52;106109;1273;26514;-56
2022/04/22 12:36:05;;;;;;;29.60;15.20;;;;;;;12.53;67.98;99674.70;105899;1273;23245;-57
2022/04/22 12:38:38;;;;;;;28.40;17.20;;;;;;;12.47;68.22;99676.51;105821;1274;25349;-55
2022/04/22 12:41:23;;;;;;;28.10;16.10;;;;;;;12.34;68.52;99676.69;105953;1273;25266;-56